sensor_id;sensor_type;location;lat;lon;timestamp;temperature;humidity
10171;DHT22;5127;50.922;6.988;2022-07-26T00:00:30;23.90;47.20
10171;DHT22;5127;50.922;6.988;2022-07-26T00:02:57;23.80;47.20
10171;DHT22;5127;50.922;6.988;2022-07-26T00:05:24;23.80;47.30
10171;DHT22;5127;50.922;6.988;2022-07-26T00:07:52;23.80;47.40
10171;DHT22;5127;50.922;6.988;2022-07-26T00:10:37;23.80;48.00
10171;DHT22;5127;50.922;6.988;2022-07-26T00:13:04;23.80;47.50
10171;DHT22;5127;50.922;6.988;2022-07-26T00:15:33;23.80;47.50
10171;DHT22;5127;50.922;6.988;2022-07-26T00:18:00;23.70;47.50
10171;DHT22;5127;50.922;6.988;2022-07-26T00:20:47;23.70;47.50
10171;DHT22;5127;50.922;6.988;2022-07-26T00:29:26;23.60;47.70
10171;DHT22;5127;50.922;6.988;2022-07-26T00:31:55;23.60;47.60
10171;DHT22;5127;50.922;6.988;2022-07-26T00:34:22;23.60;47.90
10171;DHT22;5127;50.922;6.988;2022-07-26T00:36:50;23.60;47.90
10171;DHT22;5127;50.922;6.988;2022-07-26T00:39:17;23.50;47.70
10171;DHT22;5127;50.922;6.988;2022-07-26T00:41:44;23.50;47.80
10171;DHT22;5127;50.922;6.988;2022-07-26T00:44:11;23.50;47.80
10171;DHT22;5127;50.922;6.988;2022-07-26T00:46:40;23.50;48.00
10171;DHT22;5127;50.922;6.988;2022-07-26T00:49:10;23.40;48.00
10171;DHT22;5127;50.922;6.988;2022-07-26T00:51:37;23.30;48.00
10171;DHT22;5127;50.922;6.988;2022-07-26T00:54:05;23.30;48.10
10171;DHT22;5127;50.922;6.988;2022-07-26T00:56:33;23.30;48.30
10171;DHT22;5127;50.922;6.988;2022-07-26T00:59:00;23.30;48.30
10171;DHT22;5127;50.922;6.988;2022-07-26T01:01:28;23.20;48.40
10171;DHT22;5127;50.922;6.988;2022-07-26T01:03:55;23.20;48.60
10171;DHT22;5127;50.922;6.988;2022-07-26T01:06:24;23.10;48.60
10171;DHT22;5127;50.922;6.988;2022-07-26T01:08:51;23.10;48.80
10171;DHT22;5127;50.922;6.988;2022-07-26T01:11:18;23.10;48.90
10171;DHT22;5127;50.922;6.988;2022-07-26T01:13:46;23.10;49.00
10171;DHT22;5127;50.922;6.988;2022-07-26T01:16:14;23.00;49.10
10171;DHT22;5127;50.922;6.988;2022-07-26T01:18:41;23.00;49.30
10171;DHT22;5127;50.922;6.988;2022-07-26T01:21:09;23.00;49.50
10171;DHT22;5127;50.922;6.988;2022-07-26T01:23:38;22.90;49.40
10171;DHT22;5127;50.922;6.988;2022-07-26T01:26:05;22.90;49.70
10171;DHT22;5127;50.922;6.988;2022-07-26T01:28:35;22.90;49.80
10171;DHT22;5127;50.922;6.988;2022-07-26T01:31:03;22.80;49.90
10171;DHT22;5127;50.922;6.988;2022-07-26T01:33:31;22.80;50.00
10171;DHT22;5127;50.922;6.988;2022-07-26T01:35:59;22.70;50.10
10171;DHT22;5127;50.922;6.988;2022-07-26T01:38:27;22.70;50.20
10171;DHT22;5127;50.922;6.988;2022-07-26T01:40:55;22.70;50.40
10171;DHT22;5127;50.922;6.988;2022-07-26T01:43:23;22.60;50.40
10171;DHT22;5127;50.922;6.988;2022-07-26T01:45:50;22.60;50.50
10171;DHT22;5127;50.922;6.988;2022-07-26T01:48:17;22.60;50.60
10171;DHT22;5127;50.922;6.988;2022-07-26T01:50:45;22.50;50.80
10171;DHT22;5127;50.922;6.988;2022-07-26T01:53:12;22.40;50.80
10171;DHT22;5127;50.922;6.988;2022-07-26T01:55:39;22.40;50.90
10171;DHT22;5127;50.922;6.988;2022-07-26T01:58:08;22.40;51.10
10171;DHT22;5127;50.922;6.988;2022-07-26T02:00:35;22.30;51.10
10171;DHT22;5127;50.922;6.988;2022-07-26T02:03:03;22.30;51.20
10171;DHT22;5127;50.922;6.988;2022-07-26T02:05:30;22.30;51.30
10171;DHT22;5127;50.922;6.988;2022-07-26T02:07:57;22.30;51.50
10171;DHT22;5127;50.922;6.988;2022-07-26T02:10:24;22.20;51.40
10171;DHT22;5127;50.922;6.988;2022-07-26T02:13:13;22.30;51.70
10171;DHT22;5127;50.922;6.988;2022-07-26T02:15:41;22.20;51.80
10171;DHT22;5127;50.922;6.988;2022-07-26T02:18:08;22.20;51.80
10171;DHT22;5127;50.922;6.988;2022-07-26T02:20:35;22.10;51.90
10171;DHT22;5127;50.922;6.988;2022-07-26T02:23:03;22.10;52.00
10171;DHT22;5127;50.922;6.988;2022-07-26T02:25:30;22.20;52.30
10171;DHT22;5127;50.922;6.988;2022-07-26T02:27:58;22.20;52.30
10171;DHT22;5127;50.922;6.988;2022-07-26T02:30:27;22.20;52.30
10171;DHT22;5127;50.922;6.988;2022-07-26T02:32:55;22.20;52.60
10171;DHT22;5127;50.922;6.988;2022-07-26T02:35:22;22.20;52.50
10171;DHT22;5127;50.922;6.988;2022-07-26T02:38:12;22.20;52.50
10171;DHT22;5127;50.922;6.988;2022-07-26T02:40:40;22.20;52.60
10171;DHT22;5127;50.922;6.988;2022-07-26T02:43:08;22.20;52.40
10171;DHT22;5127;50.922;6.988;2022-07-26T02:45:37;22.20;52.50
10171;DHT22;5127;50.922;6.988;2022-07-26T02:48:05;22.20;52.70
10171;DHT22;5127;50.922;6.988;2022-07-26T02:50:33;22.20;52.60
10171;DHT22;5127;50.922;6.988;2022-07-26T02:53:00;22.20;52.70
10171;DHT22;5127;50.922;6.988;2022-07-26T02:55:27;22.20;52.60
10171;DHT22;5127;50.922;6.988;2022-07-26T02:57:55;22.20;52.70
10171;DHT22;5127;50.922;6.988;2022-07-26T03:00:25;22.30;52.90
10171;DHT22;5127;50.922;6.988;2022-07-26T03:02:53;22.30;53.00
10171;DHT22;5127;50.922;6.988;2022-07-26T03:05:21;22.30;52.90
10171;DHT22;5127;50.922;6.988;2022-07-26T03:07:49;22.20;52.80
10171;DHT22;5127;50.922;6.988;2022-07-26T03:10:16;22.30;52.70
10171;DHT22;5127;50.922;6.988;2022-07-26T03:12:43;22.20;52.90
10171;DHT22;5127;50.922;6.988;2022-07-26T03:15:11;22.20;52.90
10171;DHT22;5127;50.922;6.988;2022-07-26T03:17:38;22.20;52.90
10171;DHT22;5127;50.922;6.988;2022-07-26T03:20:08;22.20;53.00
10171;DHT22;5127;50.922;6.988;2022-07-26T03:22:36;22.20;53.30
10171;DHT22;5127;50.922;6.988;2022-07-26T03:25:04;22.20;53.10
10171;DHT22;5127;50.922;6.988;2022-07-26T03:27:31;22.20;53.20
10171;DHT22;5127;50.922;6.988;2022-07-26T03:29:59;22.20;53.20
10171;DHT22;5127;50.922;6.988;2022-07-26T03:32:26;22.10;53.20
10171;DHT22;5127;50.922;6.988;2022-07-26T03:34:53;22.10;53.30
10171;DHT22;5127;50.922;6.988;2022-07-26T03:37:22;22.10;53.30
10171;DHT22;5127;50.922;6.988;2022-07-26T03:39:50;22.10;53.60
10171;DHT22;5127;50.922;6.988;2022-07-26T03:42:17;22.10;53.50
10171;DHT22;5127;50.922;6.988;2022-07-26T03:44:44;22.10;53.50
10171;DHT22;5127;50.922;6.988;2022-07-26T03:47:11;22.10;53.60
10171;DHT22;5127;50.922;6.988;2022-07-26T03:49:39;22.10;53.60
10171;DHT22;5127;50.922;6.988;2022-07-26T03:52:06;22.20;53.80
10171;DHT22;5127;50.922;6.988;2022-07-26T03:54:37;22.10;53.70
10171;DHT22;5127;50.922;6.988;2022-07-26T03:57:04;22.10;53.80
10171;DHT22;5127;50.922;6.988;2022-07-26T03:59:30;22.10;53.80
10171;DHT22;5127;50.922;6.988;2022-07-26T04:01:57;22.10;53.90
10171;DHT22;5127;50.922;6.988;2022-07-26T04:04:24;22.10;53.70
10171;DHT22;5127;50.922;6.988;2022-07-26T04:06:52;22.10;53.90
10171;DHT22;5127;50.922;6.988;2022-07-26T04:09:21;22.20;54.10
10171;DHT22;5127;50.922;6.988;2022-07-26T04:11:50;22.10;54.00
10171;DHT22;5127;50.922;6.988;2022-07-26T04:14:17;22.10;54.20
10171;DHT22;5127;50.922;6.988;2022-07-26T04:16:44;22.10;54.10
10171;DHT22;5127;50.922;6.988;2022-07-26T04:19:12;22.10;54.20
10171;DHT22;5127;50.922;6.988;2022-07-26T04:21:39;22.10;54.20
10171;DHT22;5127;50.922;6.988;2022-07-26T04:24:07;22.20;54.30
10171;DHT22;5127;50.922;6.988;2022-07-26T04:26:34;22.20;54.40
10171;DHT22;5127;50.922;6.988;2022-07-26T04:29:03;22.20;54.30
10171;DHT22;5127;50.922;6.988;2022-07-26T04:31:30;22.20;54.30
10171;DHT22;5127;50.922;6.988;2022-07-26T04:33:57;22.30;54.30
10171;DHT22;5127;50.922;6.988;2022-07-26T04:36:25;22.20;54.20
10171;DHT22;5127;50.922;6.988;2022-07-26T04:38:52;22.30;54.30
10171;DHT22;5127;50.922;6.988;2022-07-26T04:41:19;22.20;54.20
10171;DHT22;5127;50.922;6.988;2022-07-26T04:43:47;22.20;54.30
10171;DHT22;5127;50.922;6.988;2022-07-26T04:46:15;22.20;54.30
10171;DHT22;5127;50.922;6.988;2022-07-26T04:48:44;22.20;54.40
10171;DHT22;5127;50.922;6.988;2022-07-26T04:51:11;22.20;55.00
10171;DHT22;5127;50.922;6.988;2022-07-26T04:53:38;22.30;54.50
10171;DHT22;5127;50.922;6.988;2022-07-26T04:56:06;22.20;54.40
10171;DHT22;5127;50.922;6.988;2022-07-26T04:58:33;22.30;54.60
10171;DHT22;5127;50.922;6.988;2022-07-26T05:01:01;22.30;54.60
10171;DHT22;5127;50.922;6.988;2022-07-26T05:03:29;22.30;54.60
10171;DHT22;5127;50.922;6.988;2022-07-26T05:05:57;22.30;54.70
10171;DHT22;5127;50.922;6.988;2022-07-26T05:08:24;22.30;54.60
10171;DHT22;5127;50.922;6.988;2022-07-26T05:10:51;22.40;54.70
10171;DHT22;5127;50.922;6.988;2022-07-26T05:13:18;22.30;54.70
10171;DHT22;5127;50.922;6.988;2022-07-26T05:15:45;22.30;54.70
10171;DHT22;5127;50.922;6.988;2022-07-26T05:18:13;22.40;54.80
10171;DHT22;5127;50.922;6.988;2022-07-26T05:20:41;22.40;55.50
10171;DHT22;5127;50.922;6.988;2022-07-26T05:23:09;22.40;55.00
10171;DHT22;5127;50.922;6.988;2022-07-26T05:25:36;22.40;54.90
10171;DHT22;5127;50.922;6.988;2022-07-26T05:28:04;22.40;54.90
10171;DHT22;5127;50.922;6.988;2022-07-26T05:30:31;22.40;54.90
10171;DHT22;5127;50.922;6.988;2022-07-26T05:32:58;22.40;54.90
10171;DHT22;5127;50.922;6.988;2022-07-26T05:35:26;22.40;54.90
10171;DHT22;5127;50.922;6.988;2022-07-26T05:37:54;22.40;55.10
10171;DHT22;5127;50.922;6.988;2022-07-26T05:40:22;22.60;55.30
10171;DHT22;5127;50.922;6.988;2022-07-26T05:42:49;22.50;55.10
10171;DHT22;5127;50.922;6.988;2022-07-26T05:45:16;22.50;55.20
10171;DHT22;5127;50.922;6.988;2022-07-26T05:47:43;22.50;55.20
10171;DHT22;5127;50.922;6.988;2022-07-26T05:50:11;22.60;55.20
10171;DHT22;5127;50.922;6.988;2022-07-26T05:52:38;22.60;55.20
10171;DHT22;5127;50.922;6.988;2022-07-26T05:55:08;22.60;55.20
10171;DHT22;5127;50.922;6.988;2022-07-26T05:57:35;22.60;55.40
10171;DHT22;5127;50.922;6.988;2022-07-26T06:00:07;22.60;55.20
10171;DHT22;5127;50.922;6.988;2022-07-26T06:02:38;22.60;55.40
10171;DHT22;5127;50.922;6.988;2022-07-26T06:05:05;22.70;55.40
10171;DHT22;5127;50.922;6.988;2022-07-26T06:07:33;22.70;55.40
10171;DHT22;5127;50.922;6.988;2022-07-26T06:10:00;22.70;55.50
10171;DHT22;5127;50.922;6.988;2022-07-26T06:12:29;22.70;55.40
10171;DHT22;5127;50.922;6.988;2022-07-26T06:14:56;22.70;55.60
10171;DHT22;5127;50.922;6.988;2022-07-26T06:17:24;22.70;55.40
10171;DHT22;5127;50.922;6.988;2022-07-26T06:19:54;22.70;55.40
10171;DHT22;5127;50.922;6.988;2022-07-26T06:22:22;22.70;55.40
10171;DHT22;5127;50.922;6.988;2022-07-26T06:24:49;22.70;55.50
10171;DHT22;5127;50.922;6.988;2022-07-26T06:27:16;22.70;55.60
10171;DHT22;5127;50.922;6.988;2022-07-26T06:29:45;22.70;55.60
10171;DHT22;5127;50.922;6.988;2022-07-26T06:32:13;22.70;55.80
10171;DHT22;5127;50.922;6.988;2022-07-26T06:34:40;22.80;55.80
10171;DHT22;5127;50.922;6.988;2022-07-26T06:37:07;22.80;55.80
10171;DHT22;5127;50.922;6.988;2022-07-26T06:39:34;22.80;55.90
10171;DHT22;5127;50.922;6.988;2022-07-26T06:42:02;22.80;55.80
10171;DHT22;5127;50.922;6.988;2022-07-26T06:44:29;22.80;55.80
10171;DHT22;5127;50.922;6.988;2022-07-26T06:46:58;22.80;55.90
10171;DHT22;5127;50.922;6.988;2022-07-26T06:49:25;22.90;56.10
10171;DHT22;5127;50.922;6.988;2022-07-26T06:51:52;22.90;56.70
10171;DHT22;5127;50.922;6.988;2022-07-26T06:54:22;23.00;56.20
10171;DHT22;5127;50.922;6.988;2022-07-26T06:56:49;22.90;56.20
10171;DHT22;5127;50.922;6.988;2022-07-26T06:59:17;22.90;56.30
10171;DHT22;5127;50.922;6.988;2022-07-26T07:01:44;22.90;57.10
10171;DHT22;5127;50.922;6.988;2022-07-26T07:04:13;22.90;56.60
10171;DHT22;5127;50.922;6.988;2022-07-26T07:06:40;23.00;56.90
10171;DHT22;5127;50.922;6.988;2022-07-26T07:09:07;23.00;56.60
10171;DHT22;5127;50.922;6.988;2022-07-26T07:11:34;23.10;56.80
10171;DHT22;5127;50.922;6.988;2022-07-26T07:14:02;23.10;56.70
10171;DHT22;5127;50.922;6.988;2022-07-26T07:16:29;23.20;56.70
10171;DHT22;5127;50.922;6.988;2022-07-26T07:18:56;23.30;56.80
10171;DHT22;5127;50.922;6.988;2022-07-26T07:21:25;23.30;56.80
10171;DHT22;5127;50.922;6.988;2022-07-26T07:23:52;23.30;56.90
10171;DHT22;5127;50.922;6.988;2022-07-26T07:26:19;23.40;56.80
10171;DHT22;5127;50.922;6.988;2022-07-26T07:28:46;23.50;56.80
10171;DHT22;5127;50.922;6.988;2022-07-26T07:31:14;23.60;56.80
10171;DHT22;5127;50.922;6.988;2022-07-26T07:33:42;23.60;56.70
10171;DHT22;5127;50.922;6.988;2022-07-26T07:36:09;23.60;56.70
10171;DHT22;5127;50.922;6.988;2022-07-26T07:38:37;23.70;56.70
10171;DHT22;5127;50.922;6.988;2022-07-26T07:41:05;23.70;56.60
10171;DHT22;5127;50.922;6.988;2022-07-26T07:43:32;23.70;56.40
10171;DHT22;5127;50.922;6.988;2022-07-26T07:45:59;23.80;56.50
10171;DHT22;5127;50.922;6.988;2022-07-26T07:48:26;23.70;56.40
10171;DHT22;5127;50.922;6.988;2022-07-26T07:50:54;23.70;56.50
10171;DHT22;5127;50.922;6.988;2022-07-26T07:53:21;23.80;56.60
10171;DHT22;5127;50.922;6.988;2022-07-26T07:55:49;23.80;56.70
10171;DHT22;5127;50.922;6.988;2022-07-26T07:58:18;23.80;56.60
10171;DHT22;5127;50.922;6.988;2022-07-26T08:00:46;23.90;56.60
10171;DHT22;5127;50.922;6.988;2022-07-26T08:03:13;23.90;56.40
10171;DHT22;5127;50.922;6.988;2022-07-26T08:05:41;24.10;56.50
10171;DHT22;5127;50.922;6.988;2022-07-26T08:08:08;24.10;56.50
10171;DHT22;5127;50.922;6.988;2022-07-26T08:10:36;24.10;56.70
10171;DHT22;5127;50.922;6.988;2022-07-26T08:13:04;24.20;56.60
10171;DHT22;5127;50.922;6.988;2022-07-26T08:15:32;24.30;56.80
10171;DHT22;5127;50.922;6.988;2022-07-26T08:17:59;24.30;56.60
10171;DHT22;5127;50.922;6.988;2022-07-26T08:20:26;24.40;56.50
10171;DHT22;5127;50.922;6.988;2022-07-26T08:22:54;24.50;56.40
10171;DHT22;5127;50.922;6.988;2022-07-26T08:25:21;24.60;56.40
10171;DHT22;5127;50.922;6.988;2022-07-26T08:27:48;24.70;56.20
10171;DHT22;5127;50.922;6.988;2022-07-26T08:30:17;24.70;55.90
10171;DHT22;5127;50.922;6.988;2022-07-26T08:32:44;24.80;55.80
10171;DHT22;5127;50.922;6.988;2022-07-26T08:35:11;24.80;55.60
10171;DHT22;5127;50.922;6.988;2022-07-26T08:37:38;24.80;55.70
10171;DHT22;5127;50.922;6.988;2022-07-26T08:40:07;24.70;55.50
10171;DHT22;5127;50.922;6.988;2022-07-26T08:42:34;24.70;55.60
10171;DHT22;5127;50.922;6.988;2022-07-26T08:45:01;24.80;56.00
10171;DHT22;5127;50.922;6.988;2022-07-26T08:47:30;24.80;56.00
10171;DHT22;5127;50.922;6.988;2022-07-26T08:49:57;24.80;56.10
10171;DHT22;5127;50.922;6.988;2022-07-26T08:52:25;24.90;56.20
10171;DHT22;5127;50.922;6.988;2022-07-26T08:54:52;25.00;56.20
10171;DHT22;5127;50.922;6.988;2022-07-26T08:57:19;25.20;56.30
10171;DHT22;5127;50.922;6.988;2022-07-26T09:00:14;25.30;56.10
10171;DHT22;5127;50.922;6.988;2022-07-26T09:02:42;25.40;55.70
10171;DHT22;5127;50.922;6.988;2022-07-26T09:05:10;25.50;55.40
10171;DHT22;5127;50.922;6.988;2022-07-26T09:07:38;25.60;55.20
10171;DHT22;5127;50.922;6.988;2022-07-26T09:10:06;25.60;55.00
10171;DHT22;5127;50.922;6.988;2022-07-26T09:12:34;25.60;55.60
10171;DHT22;5127;50.922;6.988;2022-07-26T09:15:04;25.70;55.60
10171;DHT22;5127;50.922;6.988;2022-07-26T09:17:40;25.90;55.40
10171;DHT22;5127;50.922;6.988;2022-07-26T09:20:12;26.00;55.00
10171;DHT22;5127;50.922;6.988;2022-07-26T09:22:55;26.00;54.70
10171;DHT22;5127;50.922;6.988;2022-07-26T09:25:24;26.20;55.00
10171;DHT22;5127;50.922;6.988;2022-07-26T09:27:52;26.30;55.70
10171;DHT22;5127;50.922;6.988;2022-07-26T09:30:19;26.50;55.60
10171;DHT22;5127;50.922;6.988;2022-07-26T09:32:56;26.80;55.80
10171;DHT22;5127;50.922;6.988;2022-07-26T09:35:26;27.20;55.50
10171;DHT22;5127;50.922;6.988;2022-07-26T09:37:54;27.50;55.20
10171;DHT22;5127;50.922;6.988;2022-07-26T09:40:21;27.70;54.50
10171;DHT22;5127;50.922;6.988;2022-07-26T09:42:53;28.00;53.90
10171;DHT22;5127;50.922;6.988;2022-07-26T09:45:21;28.20;53.00
10171;DHT22;5127;50.922;6.988;2022-07-26T09:47:49;28.30;52.80
10171;DHT22;5127;50.922;6.988;2022-07-26T09:50:18;28.40;52.50
10171;DHT22;5127;50.922;6.988;2022-07-26T09:53:04;28.50;51.80
10171;DHT22;5127;50.922;6.988;2022-07-26T09:55:52;28.60;51.30
10171;DHT22;5127;50.922;6.988;2022-07-26T09:58:22;28.60;51.20
10171;DHT22;5127;50.922;6.988;2022-07-26T10:00:50;28.70;51.20
10171;DHT22;5127;50.922;6.988;2022-07-26T10:03:17;28.70;51.00
10171;DHT22;5127;50.922;6.988;2022-07-26T10:05:44;28.90;51.00
10171;DHT22;5127;50.922;6.988;2022-07-26T10:08:13;29.00;50.80
10171;DHT22;5127;50.922;6.988;2022-07-26T10:10:45;29.00;50.10
10171;DHT22;5127;50.922;6.988;2022-07-26T10:13:13;29.10;49.60
10171;DHT22;5127;50.922;6.988;2022-07-26T10:15:42;29.10;49.60
10171;DHT22;5127;50.922;6.988;2022-07-26T10:18:13;29.10;49.20
10171;DHT22;5127;50.922;6.988;2022-07-26T10:20:58;29.10;49.10
10171;DHT22;5127;50.922;6.988;2022-07-26T10:23:38;29.10;48.90
10171;DHT22;5127;50.922;6.988;2022-07-26T10:26:10;29.00;48.40
10171;DHT22;5127;50.922;6.988;2022-07-26T10:28:39;28.90;48.40
10171;DHT22;5127;50.922;6.988;2022-07-26T10:31:24;28.80;48.10
10171;DHT22;5127;50.922;6.988;2022-07-26T10:33:53;28.70;47.80
10171;DHT22;5127;50.922;6.988;2022-07-26T10:36:26;28.60;48.10
10171;DHT22;5127;50.922;6.988;2022-07-26T10:39:01;28.60;48.00
10171;DHT22;5127;50.922;6.988;2022-07-26T10:41:33;28.50;47.40
10171;DHT22;5127;50.922;6.988;2022-07-26T10:44:28;28.40;47.30
10171;DHT22;5127;50.922;6.988;2022-07-26T10:46:58;28.20;47.80
10171;DHT22;5127;50.922;6.988;2022-07-26T10:49:32;28.10;47.70
10171;DHT22;5127;50.922;6.988;2022-07-26T10:52:11;28.00;47.60
10171;DHT22;5127;50.922;6.988;2022-07-26T10:55:05;27.90;47.30
10171;DHT22;5127;50.922;6.988;2022-07-26T10:57:35;27.80;47.60
10171;DHT22;5127;50.922;6.988;2022-07-26T11:00:08;27.70;47.50
10171;DHT22;5127;50.922;6.988;2022-07-26T11:02:35;27.70;47.60
10171;DHT22;5127;50.922;6.988;2022-07-26T11:05:04;27.60;47.30
10171;DHT22;5127;50.922;6.988;2022-07-26T11:07:48;27.60;47.20
10171;DHT22;5127;50.922;6.988;2022-07-26T11:10:21;27.60;47.00
10171;DHT22;5127;50.922;6.988;2022-07-26T11:13:04;27.60;47.50
10171;DHT22;5127;50.922;6.988;2022-07-26T11:15:32;27.60;47.10
10171;DHT22;5127;50.922;6.988;2022-07-26T11:18:14;27.60;47.40
10171;DHT22;5127;50.922;6.988;2022-07-26T11:20:44;27.60;47.40
10171;DHT22;5127;50.922;6.988;2022-07-26T11:23:29;27.70;47.30
10171;DHT22;5127;50.922;6.988;2022-07-26T11:26:10;27.70;47.30
10171;DHT22;5127;50.922;6.988;2022-07-26T11:28:56;27.70;47.20
10171;DHT22;5127;50.922;6.988;2022-07-26T11:31:33;27.80;47.40
10171;DHT22;5127;50.922;6.988;2022-07-26T11:34:02;27.80;47.10
10171;DHT22;5127;50.922;6.988;2022-07-26T11:36:37;27.80;47.10
10171;DHT22;5127;50.922;6.988;2022-07-26T11:39:07;27.80;46.90
10171;DHT22;5127;50.922;6.988;2022-07-26T11:41:36;27.80;47.00
10171;DHT22;5127;50.922;6.988;2022-07-26T11:44:04;27.70;47.30
10171;DHT22;5127;50.922;6.988;2022-07-26T11:46:35;27.70;46.90
10171;DHT22;5127;50.922;6.988;2022-07-26T11:49:03;27.70;46.80
10171;DHT22;5127;50.922;6.988;2022-07-26T11:51:32;27.70;46.30
10171;DHT22;5127;50.922;6.988;2022-07-26T11:54:02;27.60;46.20
10171;DHT22;5127;50.922;6.988;2022-07-26T11:56:29;27.50;46.10
10171;DHT22;5127;50.922;6.988;2022-07-26T11:58:59;27.40;45.60
10171;DHT22;5127;50.922;6.988;2022-07-26T12:01:26;27.20;45.30
10171;DHT22;5127;50.922;6.988;2022-07-26T12:03:54;27.00;45.10
10171;DHT22;5127;50.922;6.988;2022-07-26T12:06:24;26.90;45.50
10171;DHT22;5127;50.922;6.988;2022-07-26T12:08:54;26.70;46.20
10171;DHT22;5127;50.922;6.988;2022-07-26T12:11:23;26.60;46.80
10171;DHT22;5127;50.922;6.988;2022-07-26T12:14:00;26.50;47.90
10171;DHT22;5127;50.922;6.988;2022-07-26T12:16:35;26.40;48.20
10171;DHT22;5127;50.922;6.988;2022-07-26T12:19:03;26.20;48.50
10171;DHT22;5127;50.922;6.988;2022-07-26T12:21:38;26.10;47.80
10171;DHT22;5127;50.922;6.988;2022-07-26T12:24:06;26.00;47.60
10171;DHT22;5127;50.922;6.988;2022-07-26T12:26:34;25.90;47.60
10171;DHT22;5127;50.922;6.988;2022-07-26T12:29:04;25.80;47.60
10171;DHT22;5127;50.922;6.988;2022-07-26T12:32:05;25.80;47.50
10171;DHT22;5127;50.922;6.988;2022-07-26T12:34:33;25.80;47.50
10171;DHT22;5127;50.922;6.988;2022-07-26T12:37:13;25.70;47.50
10171;DHT22;5127;50.922;6.988;2022-07-26T12:39:41;25.70;47.50
10171;DHT22;5127;50.922;6.988;2022-07-26T12:42:22;25.60;47.80
10171;DHT22;5127;50.922;6.988;2022-07-26T12:44:51;25.60;47.80
10171;DHT22;5127;50.922;6.988;2022-07-26T12:47:19;25.70;48.10
10171;DHT22;5127;50.922;6.988;2022-07-26T12:49:47;25.70;48.20
10171;DHT22;5127;50.922;6.988;2022-07-26T12:52:15;25.80;48.50
10171;DHT22;5127;50.922;6.988;2022-07-26T12:54:44;25.80;48.80
10171;DHT22;5127;50.922;6.988;2022-07-26T12:57:12;26.00;48.90
10171;DHT22;5127;50.922;6.988;2022-07-26T12:59:40;26.10;48.80
10171;DHT22;5127;50.922;6.988;2022-07-26T13:02:09;26.30;48.80
10171;DHT22;5127;50.922;6.988;2022-07-26T13:04:36;26.40;48.60
10171;DHT22;5127;50.922;6.988;2022-07-26T13:07:04;26.50;48.20
10171;DHT22;5127;50.922;6.988;2022-07-26T13:09:31;26.60;48.20
10171;DHT22;5127;50.922;6.988;2022-07-26T13:11:59;26.60;48.00
10171;DHT22;5127;50.922;6.988;2022-07-26T13:14:27;26.70;48.70
10171;DHT22;5127;50.922;6.988;2022-07-26T13:16:54;26.70;48.10
10171;DHT22;5127;50.922;6.988;2022-07-26T13:19:23;26.80;48.10
10171;DHT22;5127;50.922;6.988;2022-07-26T13:21:50;26.80;48.00
10171;DHT22;5127;50.922;6.988;2022-07-26T13:24:17;26.90;48.00
10171;DHT22;5127;50.922;6.988;2022-07-26T13:26:45;26.90;48.20
10171;DHT22;5127;50.922;6.988;2022-07-26T13:29:12;27.00;48.30
10171;DHT22;5127;50.922;6.988;2022-07-26T13:31:39;27.00;48.30
10171;DHT22;5127;50.922;6.988;2022-07-26T13:34:06;27.10;48.20
10171;DHT22;5127;50.922;6.988;2022-07-26T13:36:35;27.20;48.00
10171;DHT22;5127;50.922;6.988;2022-07-26T13:39:03;27.20;48.10
10171;DHT22;5127;50.922;6.988;2022-07-26T13:41:30;27.20;48.20
10171;DHT22;5127;50.922;6.988;2022-07-26T13:43:58;27.30;47.80
10171;DHT22;5127;50.922;6.988;2022-07-26T13:46:25;27.30;47.80
10171;DHT22;5127;50.922;6.988;2022-07-26T13:48:55;27.40;47.70
10171;DHT22;5127;50.922;6.988;2022-07-26T13:51:23;27.40;47.70
10171;DHT22;5127;50.922;6.988;2022-07-26T13:54:13;27.40;47.70
10171;DHT22;5127;50.922;6.988;2022-07-26T13:56:41;27.40;47.50
10171;DHT22;5127;50.922;6.988;2022-07-26T13:59:08;27.50;47.20
10171;DHT22;5127;50.922;6.988;2022-07-26T14:01:36;27.40;46.90
10171;DHT22;5127;50.922;6.988;2022-07-26T14:04:05;27.40;46.90
10171;DHT22;5127;50.922;6.988;2022-07-26T14:06:33;27.40;46.70
10171;DHT22;5127;50.922;6.988;2022-07-26T14:09:00;27.30;46.50
10171;DHT22;5127;50.922;6.988;2022-07-26T14:11:30;27.30;46.50
10171;DHT22;5127;50.922;6.988;2022-07-26T14:13:57;27.30;46.40
10171;DHT22;5127;50.922;6.988;2022-07-26T14:16:25;27.20;46.50
10171;DHT22;5127;50.922;6.988;2022-07-26T14:18:53;27.20;46.60
10171;DHT22;5127;50.922;6.988;2022-07-26T14:21:22;27.10;46.60
10171;DHT22;5127;50.922;6.988;2022-07-26T14:23:51;27.20;46.80
10171;DHT22;5127;50.922;6.988;2022-07-26T14:26:19;27.10;46.90
10171;DHT22;5127;50.922;6.988;2022-07-26T14:28:47;27.20;47.00
10171;DHT22;5127;50.922;6.988;2022-07-26T14:31:15;27.20;47.20
10171;DHT22;5127;50.922;6.988;2022-07-26T14:33:43;27.30;47.20
10171;DHT22;5127;50.922;6.988;2022-07-26T14:36:10;27.30;47.20
10171;DHT22;5127;50.922;6.988;2022-07-26T14:38:39;27.30;47.10
10171;DHT22;5127;50.922;6.988;2022-07-26T14:41:07;27.30;47.10
10171;DHT22;5127;50.922;6.988;2022-07-26T14:43:35;27.30;47.00
10171;DHT22;5127;50.922;6.988;2022-07-26T14:46:03;27.30;47.00
10171;DHT22;5127;50.922;6.988;2022-07-26T14:48:30;27.20;47.00
10171;DHT22;5127;50.922;6.988;2022-07-26T14:50:58;27.20;47.20
10171;DHT22;5127;50.922;6.988;2022-07-26T14:53:25;27.20;47.40
10171;DHT22;5127;50.922;6.988;2022-07-26T14:55:52;27.10;47.40
10171;DHT22;5127;50.922;6.988;2022-07-26T14:58:20;27.00;47.40
10171;DHT22;5127;50.922;6.988;2022-07-26T15:00:47;27.10;47.40
10171;DHT22;5127;50.922;6.988;2022-07-26T15:03:15;27.10;47.40
10171;DHT22;5127;50.922;6.988;2022-07-26T15:05:43;27.00;47.40
10171;DHT22;5127;50.922;6.988;2022-07-26T15:08:11;26.90;47.30
10171;DHT22;5127;50.922;6.988;2022-07-26T15:10:38;26.80;47.40
10171;DHT22;5127;50.922;6.988;2022-07-26T15:13:06;26.80;47.40
10171;DHT22;5127;50.922;6.988;2022-07-26T15:15:34;26.70;47.40
10171;DHT22;5127;50.922;6.988;2022-07-26T15:18:02;26.60;47.60
10171;DHT22;5127;50.922;6.988;2022-07-26T15:20:30;26.60;47.60
10171;DHT22;5127;50.922;6.988;2022-07-26T15:22:59;26.50;47.70
10171;DHT22;5127;50.922;6.988;2022-07-26T15:25:27;26.40;47.70
10171;DHT22;5127;50.922;6.988;2022-07-26T15:27:54;26.30;48.10
10171;DHT22;5127;50.922;6.988;2022-07-26T15:30:21;26.20;49.40
10171;DHT22;5127;50.922;6.988;2022-07-26T15:32:49;26.20;49.60
10171;DHT22;5127;50.922;6.988;2022-07-26T15:35:16;26.10;50.20
10171;DHT22;5127;50.922;6.988;2022-07-26T15:37:45;26.00;50.70
10171;DHT22;5127;50.922;6.988;2022-07-26T15:40:13;25.90;50.70
10171;DHT22;5127;50.922;6.988;2022-07-26T15:42:42;25.80;50.60
10171;DHT22;5127;50.922;6.988;2022-07-26T15:45:11;25.80;50.40
10171;DHT22;5127;50.922;6.988;2022-07-26T15:47:39;25.70;50.40
10171;DHT22;5127;50.922;6.988;2022-07-26T15:50:10;25.60;50.40
10171;DHT22;5127;50.922;6.988;2022-07-26T15:52:39;25.60;50.20
10171;DHT22;5127;50.922;6.988;2022-07-26T15:55:09;25.60;50.10
10171;DHT22;5127;50.922;6.988;2022-07-26T15:57:37;25.60;50.10
10171;DHT22;5127;50.922;6.988;2022-07-26T16:00:07;25.60;50.10
10171;DHT22;5127;50.922;6.988;2022-07-26T16:02:37;25.60;50.10